createdAt,value
2019-01-20T00:02:05.428Z,171.23
2019-01-20T00:04:35.989Z,164.07
2019-01-20T00:07:05.768Z,174.73
2019-01-20T00:09:35.494Z,172.27
2019-01-20T00:12:05.454Z,163.93
2019-01-20T00:14:35.198Z,176.30
2019-01-20T00:17:05.094Z,174.27
2019-01-20T00:19:34.850Z,180.83
2019-01-20T00:22:05.294Z,186.83
2019-01-20T00:24:34.957Z,189.23
2019-01-20T00:27:04.992Z,205.97
2019-01-20T00:29:34.704Z,201.13
2019-01-20T00:32:04.494Z,223.70
2019-01-20T00:34:34.365Z,223.73
2019-01-20T00:37:04.109Z,218.90
2019-01-20T00:39:34.005Z,198.23
2019-01-20T00:42:04.109Z,189.57
2019-01-20T00:44:33.857Z,201.17
2019-01-20T00:47:03.579Z,209.37
2019-01-20T00:49:33.299Z,201.30
2019-01-20T00:52:03.079Z,205.70
2019-01-20T00:54:32.859Z,189.77
2019-01-20T00:57:02.593Z,196.03
2019-01-20T00:59:32.368Z,210.83
2019-01-20T01:02:02.222Z,214.17
2019-01-20T01:04:31.895Z,207.10
2019-01-20T01:07:01.806Z,216.77
2019-01-20T01:09:31.491Z,205.90
2019-01-20T01:12:01.228Z,225.97
2019-01-20T01:14:30.965Z,203.37
2019-01-20T01:17:00.743Z,221.97
2019-01-20T01:19:30.677Z,222.80
2019-01-20T01:22:00.338Z,250.83
2019-01-20T01:24:30.112Z,227.33
2019-01-20T01:26:59.823Z,236.57
2019-01-20T01:29:29.578Z,244.97
2019-01-20T01:31:59.330Z,268.03
2019-01-20T01:34:29.021Z,258.60
2019-01-20T01:36:58.728Z,238.73
2019-01-20T01:39:28.523Z,240.47
2019-01-20T01:41:58.281Z,293.33
2019-01-20T01:44:28.087Z,288.63
2019-01-20T01:46:58.066Z,267.83
2019-01-20T01:49:27.897Z,250.63
2019-01-20T01:51:57.630Z,265.33
2019-01-20T01:54:27.317Z,274.40
2019-01-20T01:56:57.023Z,288.10
2019-01-20T01:59:26.845Z,273.07
2019-01-20T02:01:56.633Z,272.00
2019-01-20T02:04:27.278Z,296.20
2019-01-20T02:06:56.998Z,295.40
2019-01-20T02:09:26.687Z,296.93
2019-01-20T02:11:56.398Z,315.90
2019-01-20T02:14:26.509Z,292.30
2019-01-20T02:16:56.207Z,306.07
2019-01-20T02:19:26.023Z,272.67
2019-01-20T02:21:55.720Z,281.30
2019-01-20T02:24:25.480Z,301.03
2019-01-20T02:26:55.218Z,317.13
2019-01-20T02:29:24.973Z,296.57
2019-01-20T02:31:54.712Z,299.43
2019-01-20T02:34:24.407Z,303.47
2019-01-20T02:36:54.087Z,296.07
2019-01-20T02:39:23.804Z,289.13
2019-01-20T02:41:55.337Z,290.70
2019-01-20T02:44:24.974Z,296.23
2019-01-20T02:46:56.278Z,304.93
2019-01-20T02:49:25.993Z,284.63
2019-01-20T02:51:55.720Z,280.90
2019-01-20T02:54:25.508Z,304.37
2019-01-20T02:56:55.285Z,312.50
2019-01-20T02:59:24.994Z,334.47
2019-01-20T03:01:54.713Z,308.90
2019-01-20T03:04:25.601Z,294.03
2019-01-20T03:06:55.597Z,295.63
2019-01-20T03:09:25.273Z,281.30
2019-01-20T03:11:54.988Z,280.97
2019-01-20T03:14:24.794Z,269.30
2019-01-20T03:16:54.479Z,282.37
2019-01-20T03:19:24.409Z,287.00
2019-01-20T03:21:54.172Z,300.83
2019-01-20T03:24:23.881Z,298.33
2019-01-20T03:26:53.653Z,277.37
2019-01-20T03:29:23.408Z,280.33
2019-01-20T03:31:53.232Z,274.00
2019-01-20T03:34:22.985Z,262.80
2019-01-20T03:36:52.694Z,280.40
2019-01-20T03:39:22.579Z,301.03
2019-01-20T03:41:52.304Z,278.77
2019-01-20T03:44:22.055Z,275.20
2019-01-20T03:46:51.756Z,263.90
2019-01-20T03:49:21.515Z,271.20
2019-01-20T03:51:51.210Z,282.30
2019-01-20T03:54:20.934Z,287.87
2019-01-20T03:56:50.629Z,272.80
2019-01-20T03:59:20.321Z,286.67
2019-01-20T04:01:50.084Z,306.00
2019-01-20T04:04:19.834Z,285.60
2019-01-20T04:06:49.584Z,238.83
2019-01-20T04:09:19.278Z,260.67
2019-01-20T04:11:48.979Z,279.17
2019-01-20T04:14:18.748Z,304.30
2019-01-20T04:16:48.467Z,292.13
2019-01-20T04:19:18.168Z,302.57
2019-01-20T04:21:47.852Z,296.77
2019-01-20T04:24:17.559Z,288.97
2019-01-20T04:26:47.349Z,275.93
2019-01-20T04:29:17.094Z,290.90
2019-01-20T04:31:46.768Z,284.37
2019-01-20T04:34:16.458Z,259.40
2019-01-20T04:36:46.147Z,269.60
2019-01-20T04:39:15.880Z,256.43
2019-01-20T04:41:45.566Z,252.03
2019-01-20T04:44:15.250Z,261.53
2019-01-20T04:46:44.959Z,258.27
2019-01-20T04:49:14.714Z,243.97
2019-01-20T04:51:44.405Z,240.73
2019-01-20T04:54:14.765Z,233.57
2019-01-20T04:56:44.594Z,237.20
2019-01-20T04:59:14.274Z,231.57
2019-01-20T05:01:43.960Z,245.33
2019-01-20T05:04:13.662Z,226.50
2019-01-20T05:06:43.414Z,221.87
2019-01-20T05:09:13.109Z,229.67
2019-01-20T05:11:42.791Z,228.90
2019-01-20T05:14:12.499Z,223.10
2019-01-20T05:16:42.266Z,212.57
2019-01-20T05:19:11.948Z,215.60
2019-01-20T05:21:41.652Z,220.90
2019-01-20T05:24:11.336Z,215.03
2019-01-20T05:26:41.074Z,189.30
2019-01-20T05:29:10.760Z,209.47
2019-01-20T05:31:40.452Z,196.03
2019-01-20T05:34:10.186Z,202.67
2019-01-20T05:36:39.928Z,211.57
2019-01-20T05:39:09.617Z,227.43
2019-01-20T05:41:39.710Z,212.53
2019-01-20T05:44:09.390Z,208.27
2019-01-20T05:46:39.092Z,190.63
2019-01-20T05:49:08.863Z,203.83
2019-01-20T05:51:38.572Z,206.03
2019-01-20T05:54:08.279Z,195.70
2019-01-20T05:56:37.970Z,192.17
2019-01-20T05:59:08.747Z,193.70
2019-01-20T06:01:38.450Z,194.53
2019-01-20T06:04:08.134Z,195.63
2019-01-20T06:06:37.860Z,199.33
2019-01-20T06:09:07.713Z,192.70
2019-01-20T06:11:37.422Z,210.67
2019-01-20T06:14:08.291Z,229.60
2019-01-20T06:16:38.037Z,251.13
2019-01-20T06:19:07.727Z,244.17
2019-01-20T06:21:37.520Z,262.97
2019-01-20T06:24:07.205Z,273.90
2019-01-20T06:26:36.874Z,240.17
2019-01-20T06:29:06.571Z,261.07
2019-01-20T06:31:36.298Z,279.90
2019-01-20T06:34:06.046Z,269.47
2019-01-20T06:36:35.725Z,256.70
2019-01-20T06:39:06.707Z,288.50
2019-01-20T06:41:36.379Z,275.30
2019-01-20T06:44:06.510Z,269.37
2019-01-20T06:46:36.255Z,269.50
2019-01-20T06:49:05.945Z,295.00
2019-01-20T06:51:35.785Z,305.03
2019-01-20T06:54:05.554Z,313.37
2019-01-20T06:56:35.272Z,299.60
2019-01-20T06:59:04.968Z,315.17
2019-01-20T07:01:34.824Z,314.97
2019-01-20T07:04:04.516Z,302.13
2019-01-20T07:06:34.338Z,305.77
2019-01-20T07:09:05.857Z,325.17
2019-01-20T07:11:35.601Z,312.17
2019-01-20T07:14:05.293Z,306.27
2019-01-20T07:16:35.004Z,314.10
2019-01-20T07:19:04.764Z,323.43
2019-01-20T07:21:34.650Z,314.87
2019-01-20T07:24:04.415Z,307.73
2019-01-20T07:26:34.154Z,300.40
2019-01-20T07:29:03.866Z,316.03
2019-01-20T07:31:33.581Z,324.43
2019-01-20T07:34:03.400Z,306.17
2019-01-20T07:36:33.231Z,308.10
2019-01-20T07:39:03.017Z,312.30
2019-01-20T07:41:34.073Z,296.50
2019-01-20T07:44:03.769Z,291.90
2019-01-20T07:46:33.442Z,267.23
2019-01-20T07:49:03.134Z,284.77
2019-01-20T07:51:32.859Z,287.10
2019-01-20T07:54:02.546Z,264.30
2019-01-20T07:56:32.288Z,243.30
2019-01-20T07:59:01.975Z,235.70
2019-01-20T08:01:31.682Z,216.93
2019-01-20T08:04:01.414Z,219.40
2019-01-20T08:06:31.109Z,252.43
2019-01-20T08:09:00.837Z,233.83
2019-01-20T08:11:32.135Z,229.47
2019-01-20T08:14:01.898Z,244.50
2019-01-20T08:16:31.586Z,245.67
2019-01-20T08:19:01.272Z,218.20
2019-01-20T08:21:30.969Z,225.87
2019-01-20T08:24:00.684Z,211.50
2019-01-20T08:26:30.362Z,226.43
2019-01-20T08:29:00.295Z,232.07
2019-01-20T08:31:29.948Z,231.63
2019-01-20T08:33:59.651Z,213.60
2019-01-20T08:36:29.341Z,223.10
2019-01-20T08:38:59.081Z,224.73
2019-01-20T08:41:28.784Z,232.67
2019-01-20T08:43:58.526Z,213.13
2019-01-20T08:46:32.313Z,201.70
2019-01-20T08:49:02.105Z,224.53
2019-01-20T08:51:31.790Z,183.33
2019-01-20T08:54:01.527Z,158.63
2019-01-20T08:56:31.264Z,154.63
2019-01-20T08:59:01.080Z,154.27
2019-01-20T09:01:30.775Z,130.60
2019-01-20T09:04:00.513Z,145.57
2019-01-20T09:06:30.224Z,162.13
2019-01-20T09:09:00.055Z,141.60
2019-01-20T09:11:29.878Z,128.83
2019-01-20T09:13:59.644Z,129.63
2019-01-20T09:16:29.342Z,128.33
2019-01-20T09:18:59.063Z,134.67
2019-01-20T09:21:28.799Z,133.33
2019-01-20T09:23:58.533Z,123.30
2019-01-20T09:26:28.414Z,140.00
2019-01-20T09:28:58.137Z,136.10
2019-01-20T09:31:28.062Z,156.50
2019-01-20T09:33:57.882Z,139.07
2019-01-20T09:36:31.355Z,133.77
2019-01-20T09:39:01.174Z,154.13
2019-01-20T09:41:32.013Z,159.87
2019-01-20T09:44:01.854Z,176.40
2019-01-20T09:46:31.632Z,162.23
2019-01-20T09:49:01.447Z,144.97
2019-01-20T09:51:31.150Z,147.83
2019-01-20T09:54:00.923Z,103.77
2019-01-20T09:56:30.747Z,104.00
2019-01-20T09:59:00.688Z,114.13
2019-01-20T10:01:30.329Z,106.07
2019-01-20T10:04:01.673Z,99.67
2019-01-20T10:06:31.523Z,97.13
2019-01-20T10:09:01.292Z,93.17
2019-01-20T10:11:31.296Z,101.30
2019-01-20T10:14:01.127Z,104.47
2019-01-20T10:16:31.035Z,102.20
2019-01-20T10:19:02.567Z,99.30
2019-01-20T10:21:32.393Z,100.17
2019-01-20T10:24:02.243Z,101.23
2019-01-20T10:26:32.052Z,100.00
2019-01-20T10:29:01.823Z,101.20
2019-01-20T10:31:31.754Z,106.77
2019-01-20T10:34:01.575Z,97.73
2019-01-20T10:36:31.506Z,69.13
2019-01-20T10:39:01.387Z,71.37
2019-01-20T10:41:32.630Z,77.93
2019-01-20T10:44:02.511Z,71.10
2019-01-20T10:46:32.238Z,77.87
2019-01-20T10:49:02.363Z,83.93
2019-01-20T10:51:32.214Z,78.97
2019-01-20T10:54:01.966Z,80.57
2019-01-20T10:56:31.830Z,84.13
2019-01-20T10:59:01.640Z,73.03
2019-01-20T11:01:31.364Z,76.00
2019-01-20T11:04:01.184Z,67.83
2019-01-20T11:06:30.917Z,69.90
2019-01-20T11:09:01.784Z,53.43
2019-01-20T11:11:31.740Z,57.60
2019-01-20T11:14:01.600Z,62.03
2019-01-20T11:16:32.463Z,63.53
2019-01-20T11:19:02.221Z,68.20
2019-01-20T11:21:32.181Z,63.23
2019-01-20T11:24:02.017Z,68.40
2019-01-20T11:26:32.094Z,55.07
2019-01-20T11:29:02.141Z,65.47
2019-01-20T11:31:32.040Z,66.97
2019-01-20T11:34:01.992Z,60.90
2019-01-20T11:36:31.763Z,73.63
2019-01-20T11:39:01.634Z,70.67
2019-01-20T11:41:33.025Z,25.67
2019-01-20T11:44:02.975Z,63.80
2019-01-20T11:46:33.202Z,71.20
2019-01-20T11:49:03.112Z,66.13
2019-01-20T11:51:32.781Z,33.13
2019-01-20T11:54:02.713Z,52.17
2019-01-20T11:56:32.628Z,64.10
2019-01-20T11:59:02.546Z,71.00
2019-01-20T12:01:32.218Z,50.67
2019-01-20T12:04:02.075Z,63.67
2019-01-20T12:06:31.959Z,71.87
2019-01-20T12:09:01.934Z,63.93
2019-01-20T12:11:33.034Z,49.50
2019-01-20T12:14:03.255Z,61.60
2019-01-20T12:16:33.145Z,66.27
2019-01-20T12:19:03.301Z,59.63
2019-01-20T12:21:36.983Z,64.23
2019-01-20T12:24:08.743Z,64.17
2019-01-20T12:26:38.601Z,58.33
2019-01-20T12:29:08.493Z,47.77
2019-01-20T12:31:38.377Z,62.93
2019-01-20T12:34:08.297Z,64.73
2019-01-20T12:36:38.123Z,31.53
2019-01-20T12:39:08.942Z,57.93
2019-01-20T12:41:38.653Z,68.27
2019-01-20T12:44:08.782Z,64.47
2019-01-20T12:46:38.669Z,64.23
2019-01-20T12:49:08.379Z,42.63
2019-01-20T12:51:54.488Z,57.77
2019-01-20T12:54:26.257Z,51.37
2019-01-20T12:56:56.005Z,52.80
2019-01-20T12:59:25.837Z,62.00
2019-01-20T13:01:55.772Z,48.67
2019-01-20T13:04:25.673Z,60.20
2019-01-20T13:06:55.617Z,70.60
2019-01-20T13:09:25.384Z,39.70
2019-01-20T13:11:55.422Z,69.27
2019-01-20T13:14:25.152Z,61.10
2019-01-20T13:16:54.836Z,52.13
2019-01-20T13:19:24.676Z,45.50
2019-01-20T13:21:54.423Z,56.40
2019-01-20T13:24:24.137Z,50.30
2019-01-20T13:26:54.013Z,59.93
2019-01-20T13:29:23.762Z,66.17
2019-01-20T13:31:53.581Z,62.70
2019-01-20T13:34:23.461Z,58.47
2019-01-20T13:36:53.257Z,50.43
2019-01-20T13:39:23.124Z,60.23
2019-01-20T13:41:52.872Z,61.87
2019-01-20T13:44:22.803Z,57.13
2019-01-20T13:46:52.677Z,61.77
2019-01-20T13:49:22.583Z,58.80
2019-01-20T13:51:54.035Z,63.50
2019-01-20T13:54:23.812Z,61.57
2019-01-20T13:56:53.592Z,60.53
2019-01-20T13:59:23.333Z,68.10
2019-01-20T14:01:53.122Z,59.20
2019-01-20T14:04:23.034Z,45.53
2019-01-20T14:06:52.873Z,56.23
2019-01-20T14:09:22.772Z,67.60
2019-01-20T14:11:52.672Z,58.97
2019-01-20T14:14:27.046Z,49.47
2019-01-20T14:16:56.978Z,61.80
2019-01-20T14:19:26.898Z,50.90
2019-01-20T14:21:56.997Z,44.40
2019-01-20T14:24:29.453Z,57.50
2019-01-20T14:26:59.370Z,44.17
2019-01-20T14:29:29.296Z,58.27
2019-01-20T14:32:00.714Z,61.40
2019-01-20T14:34:30.683Z,62.50
2019-01-20T14:37:00.843Z,62.37
2019-01-20T14:39:30.787Z,47.10
2019-01-20T14:42:00.673Z,63.97
2019-01-20T14:44:30.454Z,64.07
2019-01-20T14:47:03.372Z,64.77
2019-01-20T14:49:33.173Z,67.70
2019-01-20T14:52:03.512Z,67.87
2019-01-20T14:54:33.496Z,62.13
2019-01-20T14:57:03.653Z,70.37
2019-01-20T15:00:12.262Z,62.53
2019-01-20T15:02:42.209Z,71.50
2019-01-20T15:05:11.879Z,81.03
2019-01-20T15:07:41.693Z,61.77
2019-01-20T15:10:14.126Z,75.87
2019-01-20T15:12:44.073Z,64.17
2019-01-20T15:15:17.356Z,62.53
2019-01-20T15:17:47.292Z,62.27
2019-01-20T15:20:17.142Z,65.80
2019-01-20T15:22:47.074Z,70.43
2019-01-20T15:25:21.073Z,61.80
2019-01-20T15:27:52.457Z,60.67
2019-01-20T15:30:26.553Z,63.40
2019-01-20T15:32:56.732Z,55.87
2019-01-20T15:35:26.589Z,64.43
2019-01-20T15:37:56.393Z,56.40
2019-01-20T15:40:26.212Z,55.37
2019-01-20T15:42:58.966Z,65.20
2019-01-20T15:45:33.125Z,41.60
2019-01-20T15:48:07.560Z,66.80
2019-01-20T15:50:37.485Z,29.90
2019-01-20T15:53:07.491Z,55.07
2019-01-20T15:55:38.337Z,65.50
2019-01-20T15:58:08.353Z,65.70
2019-01-20T16:00:38.153Z,67.30
2019-01-20T16:03:08.193Z,70.57
2019-01-20T16:05:37.964Z,70.80
2019-01-20T16:08:07.730Z,51.43
2019-01-20T16:13:36.490Z,44.47
2019-01-20T16:16:06.304Z,61.53
2019-01-20T16:18:36.138Z,56.80
2019-01-20T16:21:06.150Z,67.90
2019-01-20T16:23:36.124Z,64.63
2019-01-20T16:26:05.854Z,68.40
2019-01-20T16:28:36.701Z,68.37
2019-01-20T16:31:06.482Z,71.73
2019-01-20T16:33:36.405Z,71.37
2019-01-20T16:36:06.260Z,77.77
2019-01-20T16:38:36.078Z,76.00
2019-01-20T16:41:05.920Z,83.43
2019-01-20T16:43:35.861Z,76.43
2019-01-20T16:46:05.782Z,70.93
2019-01-20T16:48:35.661Z,70.80
2019-01-20T16:51:05.423Z,73.83
2019-01-20T16:53:35.181Z,78.67
2019-01-20T16:56:04.962Z,78.67
2019-01-20T16:58:34.720Z,75.77
2019-01-20T17:01:04.550Z,80.00
2019-01-20T17:03:36.251Z,80.17
2019-01-20T17:06:06.038Z,84.60
2019-01-20T17:08:35.835Z,76.73
2019-01-20T17:11:05.584Z,75.20
2019-01-20T17:13:35.330Z,71.07
2019-01-20T17:16:05.121Z,79.20
2019-01-20T17:18:35.012Z,80.73
2019-01-20T17:21:04.760Z,74.77
2019-01-20T17:23:34.621Z,76.53
2019-01-20T17:26:04.432Z,82.70
2019-01-20T17:28:34.221Z,80.00
2019-01-20T17:31:04.692Z,83.67
2019-01-20T17:33:34.592Z,86.13
2019-01-20T17:36:06.338Z,71.73
2019-01-20T17:38:36.465Z,81.80
2019-01-20T17:41:06.243Z,83.47
2019-01-20T17:43:36.128Z,97.87
2019-01-20T17:46:05.942Z,86.13
2019-01-20T17:48:35.933Z,85.83
2019-01-20T17:51:05.660Z,84.70
2019-01-20T17:53:35.591Z,87.90
2019-01-20T17:56:05.401Z,96.50
2019-01-20T17:58:35.183Z,85.97
2019-01-20T18:01:05.021Z,93.43
2019-01-20T18:03:35.083Z,87.73
2019-01-20T18:06:05.031Z,85.97
2019-01-20T18:08:34.841Z,98.13
2019-01-20T18:11:04.753Z,91.83
2019-01-20T18:13:34.589Z,102.13
2019-01-20T18:16:04.501Z,97.63
2019-01-20T18:18:34.261Z,97.97
2019-01-20T18:21:04.413Z,96.00
2019-01-20T18:23:34.333Z,105.33
2019-01-20T18:26:04.540Z,94.03
2019-01-20T18:28:34.322Z,101.00
2019-01-20T18:31:04.192Z,108.83
2019-01-20T18:33:34.071Z,98.80
2019-01-20T18:36:04.312Z,98.37
2019-01-20T18:38:34.200Z,102.10
2019-01-20T18:41:04.043Z,112.10
2019-01-20T18:43:33.830Z,115.87
2019-01-20T18:46:03.845Z,103.17
2019-01-20T18:48:33.721Z,106.97
2019-01-20T18:51:03.581Z,113.50
2019-01-20T18:53:33.612Z,106.33
2019-01-20T18:56:03.302Z,112.33
2019-01-20T18:58:33.241Z,128.10
2019-01-20T19:01:04.249Z,127.90
2019-01-20T19:03:34.359Z,120.30
2019-01-20T19:06:06.956Z,129.47
2019-01-20T19:08:41.793Z,129.23
2019-01-20T19:11:11.689Z,130.50
2019-01-20T19:13:41.533Z,134.97
2019-01-20T19:16:11.391Z,130.20
2019-01-20T19:18:41.240Z,133.57
2019-01-20T19:21:11.101Z,134.63
2019-01-20T19:23:40.941Z,132.70
2019-01-20T19:26:11.630Z,127.90
2019-01-20T19:28:42.752Z,125.70
2019-01-20T19:31:13.489Z,146.90
2019-01-20T19:33:43.421Z,147.47
2019-01-20T19:36:22.353Z,144.13
2019-01-20T19:38:52.463Z,125.03
2019-01-20T19:41:22.413Z,147.07
2019-01-20T19:43:52.264Z,188.10
2019-01-20T19:46:22.250Z,170.60
2019-01-20T19:48:53.524Z,151.00
2019-01-20T19:51:23.588Z,143.47
2019-01-20T19:53:54.780Z,138.30
2019-01-20T19:56:24.821Z,129.03
2019-01-20T19:58:55.912Z,136.50
2019-01-20T20:01:30.758Z,140.03
2019-01-20T20:04:02.240Z,124.07
2019-01-20T20:06:32.153Z,125.00
2019-01-20T20:09:02.505Z,125.43
2019-01-20T20:11:32.791Z,114.13
2019-01-20T20:14:02.643Z,117.80
2019-01-20T20:16:32.591Z,127.10
2019-01-20T20:19:02.407Z,127.80
2019-01-20T20:21:32.295Z,126.50
2019-01-20T20:24:04.790Z,124.03
2019-01-20T20:26:34.540Z,130.20
2019-01-20T20:29:04.401Z,134.10
2019-01-20T20:31:34.380Z,145.63
2019-01-20T20:34:04.512Z,144.07
2019-01-20T20:36:34.360Z,150.30
2019-01-20T20:39:06.923Z,168.50
2019-01-20T20:41:36.709Z,179.57
2019-01-20T20:44:06.812Z,172.10
2019-01-20T20:46:36.650Z,159.07
2019-01-20T20:49:06.441Z,156.93
2019-01-20T20:51:36.322Z,165.53
2019-01-20T20:54:06.089Z,147.10
2019-01-20T20:56:38.581Z,151.10
2019-01-20T20:59:09.820Z,143.80
2019-01-20T21:01:39.713Z,151.40
2019-01-20T21:04:09.423Z,148.73
2019-01-20T21:06:39.360Z,148.83
2019-01-20T21:09:09.261Z,141.37
2019-01-20T21:11:39.153Z,148.93
2019-01-20T21:14:08.854Z,141.70
2019-01-20T21:16:38.796Z,128.77
2019-01-20T21:19:08.674Z,145.17
2019-01-20T21:21:38.784Z,135.17
2019-01-20T21:24:08.612Z,135.00
2019-01-20T21:26:38.344Z,136.87
2019-01-20T21:29:08.098Z,135.27
2019-01-20T21:31:37.875Z,124.07
2019-01-20T21:34:07.756Z,138.60
2019-01-20T21:36:37.501Z,130.47
2019-01-20T21:39:08.322Z,122.27
2019-01-20T21:41:38.321Z,141.73
2019-01-20T21:44:08.181Z,147.27
2019-01-20T21:46:45.173Z,134.37
2019-01-20T21:49:09.914Z,141.27
2019-01-20T21:51:39.799Z,135.50
2019-01-20T21:54:09.520Z,141.77
2019-01-20T21:56:39.183Z,146.60
2019-01-20T21:59:08.932Z,151.63
2019-01-20T22:01:38.711Z,157.63
2019-01-20T22:04:08.420Z,152.10
2019-01-20T22:06:38.095Z,161.33
2019-01-20T22:09:07.999Z,147.53
2019-01-20T22:11:39.217Z,159.23
2019-01-20T22:14:09.070Z,147.83
2019-01-20T22:16:38.741Z,155.17
2019-01-20T22:19:08.406Z,168.53
2019-01-20T22:21:38.104Z,172.27
2019-01-20T22:24:07.827Z,162.13
2019-01-20T22:26:37.612Z,157.33
2019-01-20T22:29:07.270Z,160.63
2019-01-20T22:31:37.022Z,157.40
2019-01-20T22:34:06.744Z,158.83
2019-01-20T22:36:36.504Z,168.03
2019-01-20T22:39:06.884Z,167.00
2019-01-20T22:41:36.566Z,163.47
2019-01-20T22:44:06.266Z,153.67
2019-01-20T22:46:35.967Z,149.23
2019-01-20T22:49:05.759Z,168.67
2019-01-20T22:51:35.475Z,155.60
2019-01-20T22:54:05.184Z,168.07
2019-01-20T22:56:34.904Z,151.67
2019-01-20T22:59:04.592Z,158.80
2019-01-20T23:01:34.278Z,161.47
2019-01-20T23:04:04.337Z,167.13
2019-01-20T23:06:34.189Z,166.00
2019-01-20T23:09:06.711Z,166.30
2019-01-20T23:11:36.686Z,169.47
2019-01-20T23:14:06.400Z,172.03
2019-01-20T23:16:36.095Z,155.87
2019-01-20T23:19:05.799Z,169.53
2019-01-20T23:21:35.547Z,165.40
2019-01-20T23:24:05.345Z,165.60
2019-01-20T23:26:35.024Z,156.80
2019-01-20T23:29:04.788Z,164.93
2019-01-20T23:31:34.470Z,156.00
2019-01-20T23:34:04.260Z,161.30
2019-01-20T23:36:33.974Z,164.07
2019-01-20T23:39:03.879Z,145.43
2019-01-20T23:41:34.249Z,162.00
2019-01-20T23:44:04.233Z,167.23
2019-01-20T23:46:34.043Z,161.97
2019-01-20T23:49:03.761Z,156.37
2019-01-20T23:51:33.470Z,168.07
2019-01-20T23:54:03.174Z,160.37
2019-01-20T23:56:32.864Z,163.77
2019-01-20T23:59:02.567Z,169.40
